Dawson, North Dakota
Current Conditions -  °F | °C
As of 4:52 PM on Thursday 23 Oct 2014 (Local Time) from KBIS Reporting Station
Clear Clear  
Wind Chill: 73°   Ceiling: Unl
Heat Index: 73°   Visibility: 10mi
Dew Point: 31°   Wind: 13mph
Humidity: 21%   Direction: 210°SSW
Pressure: 29.81"   Gusts: NA
Location:  46.87°N, 99.75°W
Report Text: KBIS 232152Z 21011KT 10SM CLR 23/M01 A2981 RMK AO2 SLP099 T02281006
Loading
Personal Weather Stations






























Interactive Weather Map New forecast layout! Learn more

10-Day Weather Forecast

Advertisements
Track Severe Weather on mobile